Time;durP1;ratioP1;P1;durP2;ratioP2;P2;SDS_P1;SDS_P2;PMS_P1;PMS_P2;Temp;Humidity;BMP_temperature;BMP_pressure;BME280_temperature;BME280_humidity;BME280_pressure;Samples;Min_cycle;Max_cycle;Signal;HPM_P1;HPM_P2
2021/09/03 00:01:17;;;;;;;13.10;8.80;;;13.60;99.90;;;;;;5064401;28;20028;-75
2021/09/03 00:03:42;;;;;;;10.00;9.00;;;13.50;99.90;;;;;;5053689;28;20550;-76
2021/09/03 00:06:08;;;;;;;9.00;8.10;;;13.50;99.90;;;;;;5063649;28;20115;-75
2021/09/03 00:08:34;;;;;;;9.75;8.75;;;13.50;99.90;;;;;;5059769;28;20490;-74
2021/09/03 00:10:59;;;;;;;9.35;8.45;;;13.50;99.90;;;;;;5058666;28;20059;-72
2021/09/03 00:13:26;;;;;;;14.93;9.25;;;13.50;99.90;;;;;;5070418;28;20025;-72
2021/09/03 00:15:53;;;;;;;10.43;8.88;;;13.40;99.90;;;;;;5056682;28;20027;-73
2021/09/03 00:18:18;;;;;;;10.57;8.95;;;13.40;99.90;;;;;;5066469;28;20021;-72
2021/09/03 00:20:44;;;;;;;13.27;9.52;;;13.20;99.90;;;;;;5063292;28;20393;-71
2021/09/03 00:23:09;;;;;;;13.93;9.35;;;13.20;99.90;;;;;;5059588;28;20021;-71
2021/09/03 00:25:35;;;;;;;11.13;8.75;;;13.20;99.90;;;;;;5070456;28;20033;-72
2021/09/03 00:28:01;;;;;;;10.75;8.93;;;13.20;99.90;;;;;;5057989;28;20033;-71
2021/09/03 00:30:26;;;;;;;14.27;9.10;;;13.20;99.90;;;;;;5064094;28;20021;-72
2021/09/03 00:32:52;;;;;;;10.25;8.25;;;13.20;99.90;;;;;;5065721;28;20025;-72
2021/09/03 00:35:17;;;;;;;10.80;8.38;;;13.20;99.90;;;;;;5057825;28;20384;-72
2021/09/03 00:37:43;;;;;;;13.02;8.40;;;13.20;99.90;;;;;;5068907;28;20511;-71
2021/09/03 00:40:09;;;;;;;12.75;8.48;;;13.10;99.90;;;;;;5058218;28;20012;-72
2021/09/03 00:42:34;;;;;;;11.98;9.23;;;13.10;99.90;;;;;;5065870;28;20048;-74
2021/09/03 00:45:00;;;;;;;9.23;8.05;;;13.10;99.90;;;;;;5059280;28;20059;-73
2021/09/03 00:47:26;;;;;;;9.93;8.93;;;13.10;99.90;;;;;;5068230;28;20028;-74
2021/09/03 00:49:51;;;;;;;11.25;7.75;;;13.00;99.90;;;;;;5064648;28;20099;-72
2021/09/03 00:52:17;;;;;;;11.32;8.82;;;13.00;99.90;;;;;;5063509;28;20028;-73
2021/09/03 00:54:43;;;;;;;10.82;8.02;;;13.00;99.90;;;;;;5062828;28;20025;-72
2021/09/03 00:57:09;;;;;;;10.90;9.80;;;13.10;99.90;;;;;;5060556;28;20104;-73
2021/09/03 00:59:35;;;;;;;9.75;8.85;;;13.00;99.90;;;;;;5069510;28;20035;-73
2021/09/03 01:02:00;;;;;;;9.80;8.30;;;13.00;99.90;;;;;;5056515;28;20039;-73
2021/09/03 01:04:26;;;;;;;11.00;8.32;;;12.90;99.90;;;;;;5072651;28;20032;-77
2021/09/03 01:06:52;;;;;;;9.35;7.78;;;12.90;99.90;;;;;;5066708;28;20491;-76
2021/09/03 01:09:18;;;;;;;8.95;7.72;;;12.90;99.90;;;;;;5070947;28;20031;-75
2021/09/03 01:11:43;;;;;;;10.43;7.78;;;12.90;99.90;;;;;;5077278;28;20032;-71
2021/09/03 01:14:09;;;;;;;10.55;8.30;;;12.90;99.90;;;;;;5071933;28;20101;-71
2021/09/03 01:16:34;;;;;;;10.75;8.75;;;12.90;99.90;;;;;;5062010;28;20040;-71
2021/09/03 01:19:00;;;;;;;9.48;8.00;;;12.90;99.90;;;;;;5053161;28;20103;-72
2021/09/03 01:21:28;;;;;;;8.77;7.88;;;12.80;99.90;;;;;;5051862;28;20028;-73
2021/09/03 01:23:53;;;;;;;9.93;8.75;;;12.80;99.90;;;;;;5052852;28;20021;-72
2021/09/03 01:26:19;;;;;;;11.13;9.25;;;12.70;99.90;;;;;;5053035;28;20389;-72
2021/09/03 01:28:48;;;;;;;10.50;8.77;;;12.70;99.90;;;;;;5053012;28;20036;-73
2021/09/03 01:31:15;;;;;;;11.20;8.88;;;12.60;99.90;;;;;;5051637;28;20028;-72
2021/09/03 01:33:40;;;;;;;12.15;9.10;;;12.70;99.90;;;;;;5052970;28;20395;-72
2021/09/03 01:36:06;;;;;;;10.20;8.70;;;12.70;99.90;;;;;;5051662;28;20029;-73
2021/09/03 01:38:33;;;;;;;11.63;8.82;;;12.60;99.90;;;;;;5051581;28;20045;-73
2021/09/03 01:40:58;;;;;;;11.00;9.48;;;12.60;99.90;;;;;;5052618;28;20092;-72
2021/09/03 01:43:24;;;;;;;10.50;9.23;;;12.50;99.90;;;;;;5052492;28;20028;-71
2021/09/03 01:45:49;;;;;;;10.38;8.60;;;12.50;99.90;;;;;;5054024;28;20131;-72
2021/09/03 01:48:15;;;;;;;13.38;9.38;;;12.50;99.90;;;;;;5049841;28;20021;-71
2021/09/03 01:50:40;;;;;;;9.90;8.90;;;12.50;99.90;;;;;;5052445;28;20043;-72
2021/09/03 01:53:06;;;;;;;11.88;8.60;;;12.40;99.90;;;;;;5051170;28;20112;-71
2021/09/03 01:55:31;;;;;;;9.85;8.27;;;12.50;99.90;;;;;;5051072;28;20060;-73
2021/09/03 01:57:58;;;;;;;9.98;8.98;;;12.50;99.90;;;;;;5052512;28;20032;-72
2021/09/03 02:00:25;;;;;;;8.88;7.97;;;12.50;99.90;;;;;;5051204;28;20028;-72
2021/09/03 02:02:50;;;;;;;10.35;8.95;;;12.50;99.90;;;;;;5052467;28;20013;-72
2021/09/03 02:05:16;;;;;;;10.82;8.20;;;12.50;99.90;;;;;;5053452;28;20028;-71
2021/09/03 02:07:41;;;;;;;11.68;8.57;;;12.50;99.90;;;;;;5052681;28;20118;-72
2021/09/03 02:10:08;;;;;;;11.30;7.97;;;12.40;99.90;;;;;;5052453;28;20025;-72
2021/09/03 02:12:33;;;;;;;12.57;8.43;;;12.40;99.90;;;;;;5051387;28;20159;-72
2021/09/03 02:14:59;;;;;;;11.52;8.65;;;12.30;99.90;;;;;;5051088;28;20112;-72
2021/09/03 02:17:24;;;;;;;9.43;8.13;;;12.30;99.90;;;;;;5052766;28;20032;-72
2021/09/03 02:19:50;;;;;;;14.73;10.10;;;12.30;99.90;;;;;;5052402;28;20028;-72
2021/09/03 02:22:15;;;;;;;13.65;9.38;;;12.20;99.90;;;;;;5052146;28;20553;-72
2021/09/03 02:24:41;;;;;;;9.65;8.65;;;12.20;99.90;;;;;;5052041;28;20476;-72
2021/09/03 02:27:07;;;;;;;12.32;10.27;;;12.20;99.90;;;;;;5051749;28;20094;-71
2021/09/03 02:29:32;;;;;;;12.98;11.38;;;12.20;99.90;;;;;;5051747;28;20496;-70
2021/09/03 02:31:58;;;;;;;14.55;9.60;;;12.20;99.90;;;;;;5052034;28;20083;-72
2021/09/03 02:34:24;;;;;;;11.15;10.05;;;12.20;99.90;;;;;;5050931;28;20032;-71
2021/09/03 02:36:50;;;;;;;12.80;10.02;;;12.20;99.90;;;;;;5050370;28;20053;-72
2021/09/03 02:39:16;;;;;;;12.73;10.13;;;12.20;99.90;;;;;;5050310;28;20049;-72
2021/09/03 02:41:42;;;;;;;12.38;9.23;;;12.10;99.90;;;;;;5051693;28;20104;-71
2021/09/03 02:44:07;;;;;;;16.65;8.85;;;12.10;99.90;;;;;;5051693;28;20450;-71
2021/09/03 02:46:33;;;;;;;15.23;10.23;;;12.10;99.90;;;;;;5050343;28;20024;-71
2021/09/03 02:48:58;;;;;;;11.65;9.43;;;12.10;99.90;;;;;;5046382;28;20086;-72
2021/09/03 02:51:24;;;;;;;10.40;9.30;;;12.10;99.90;;;;;;5059831;28;20029;-72
2021/09/03 02:53:49;;;;;;;11.02;9.88;;;12.20;99.90;;;;;;5050199;28;20032;-72
2021/09/03 02:56:15;;;;;;;11.23;9.95;;;12.10;99.90;;;;;;5051560;28;20029;-72
2021/09/03 02:58:41;;;;;;;10.85;9.75;;;12.00;99.90;;;;;;5050187;28;20476;-71
2021/09/03 03:01:06;;;;;;;13.73;11.20;;;12.00;99.90;;;;;;5051488;28;20421;-71
2021/09/03 03:03:32;;;;;;;12.43;10.20;;;12.00;99.90;;;;;;5050375;28;20021;-72
2021/09/03 03:05:58;;;;;;;11.85;10.60;;;12.00;99.90;;;;;;5051488;28;20025;-72
2021/09/03 03:08:23;;;;;;;12.63;10.02;;;12.00;99.90;;;;;;5051402;28;20116;-72
2021/09/03 03:10:49;;;;;;;10.48;9.38;;;11.90;99.90;;;;;;5049944;28;20025;-72
2021/09/03 03:13:26;;;;;;;11.80;9.32;;;11.90;99.90;;;;;;5051607;28;20269;-73
2021/09/03 03:15:52;;;;;;;12.63;10.70;;;11.90;99.90;;;;;;5051344;28;20029;-73
2021/09/03 03:18:18;;;;;;;11.18;9.00;;;11.90;99.90;;;;;;5051543;28;20143;-72
2021/09/03 03:20:45;;;;;;;11.73;10.43;;;11.90;99.90;;;;;;5049919;28;20051;-73
2021/09/03 03:23:11;;;;;;;13.23;10.10;;;11.90;99.90;;;;;;5052678;28;20022;-72
2021/09/03 03:25:37;;;;;;;12.30;10.13;;;11.90;99.90;;;;;;5053462;28;20025;-72
2021/09/03 03:28:03;;;;;;;13.13;11.85;;;11.90;99.90;;;;;;5051348;28;20499;-72
2021/09/03 03:30:29;;;;;;;15.90;14.27;;;11.80;99.90;;;;;;5051255;28;20052;-71
2021/09/03 03:32:54;;;;;;;14.07;12.55;;;11.80;99.90;;;;;;5051277;28;20067;-72
2021/09/03 03:35:20;;;;;;;12.20;10.90;;;11.70;99.90;;;;;;5051281;28;20435;-72
2021/09/03 03:37:45;;;;;;;18.75;14.02;;;11.60;99.90;;;;;;5051636;28;20457;-73
2021/09/03 03:40:11;;;;;;;14.95;13.27;;;11.60;99.90;;;;;;5049732;28;20094;-73
2021/09/03 03:42:37;;;;;;;21.75;17.17;;;11.60;99.90;;;;;;5049656;28;20024;-73
2021/09/03 03:45:03;;;;;;;23.25;18.40;;;11.60;99.90;;;;;;5051261;28;20033;-73
2021/09/03 03:47:29;;;;;;;23.83;19.27;;;11.60;99.90;;;;;;5054847;28;20104;-73
2021/09/03 03:49:54;;;;;;;22.95;16.90;;;11.60;99.90;;;;;;5060232;28;20591;-72
2021/09/03 03:52:20;;;;;;;18.95;12.80;;;11.60;99.90;;;;;;5060029;28;20024;-73
2021/09/03 03:54:45;;;;;;;12.95;11.63;;;11.60;99.90;;;;;;5054854;28;20029;-72
2021/09/03 03:57:11;;;;;;;13.77;11.43;;;11.60;99.90;;;;;;5055050;28;20033;-73
2021/09/03 03:59:36;;;;;;;13.23;11.70;;;11.60;99.90;;;;;;5054661;28;20017;-72
2021/09/03 04:02:02;;;;;;;18.65;12.70;;;11.70;99.90;;;;;;5053276;28;20385;-72
2021/09/03 04:04:27;;;;;;;12.73;10.32;;;11.60;99.90;;;;;;5054703;28;20021;-73
2021/09/03 04:06:53;;;;;;;12.43;10.80;;;11.60;99.90;;;;;;5054591;28;20098;-71
2021/09/03 04:09:19;;;;;;;11.25;9.65;;;11.50;99.90;;;;;;5052988;28;20434;-72
2021/09/03 04:11:46;;;;;;;13.25;9.77;;;11.50;99.90;;;;;;5054378;28;20060;-72
2021/09/03 04:14:12;;;;;;;14.50;10.90;;;11.40;99.90;;;;;;5053081;28;20063;-71
2021/09/03 04:16:38;;;;;;;11.73;10.52;;;11.30;99.90;;;;;;5054492;28;20061;-72
2021/09/03 04:19:04;;;;;;;20.42;10.68;;;11.30;99.90;;;;;;5054258;28;20052;-72
2021/09/03 04:21:30;;;;;;;16.00;10.25;;;11.40;99.90;;;;;;5053145;28;20021;-72
2021/09/03 04:23:55;;;;;;;13.73;10.45;;;11.40;99.90;;;;;;5054196;28;20052;-72
2021/09/03 04:26:21;;;;;;;14.65;10.77;;;11.40;99.90;;;;;;5054002;28;20624;-73
2021/09/03 04:28:47;;;;;;;12.10;10.52;;;11.40;99.90;;;;;;5053967;28;20056;-70
2021/09/03 04:31:12;;;;;;;14.05;9.00;;;11.40;99.90;;;;;;5054006;28;20059;-73
2021/09/03 04:33:38;;;;;;;11.80;9.73;;;11.40;99.90;;;;;;5053936;28;20036;-71
2021/09/03 04:36:03;;;;;;;10.55;8.48;;;11.40;99.90;;;;;;5054011;28;20138;-71
2021/09/03 04:38:30;;;;;;;16.58;9.30;;;11.50;99.90;;;;;;5053662;28;20021;-71
2021/09/03 04:40:57;;;;;;;12.30;8.48;;;11.50;99.90;;;;;;5052525;28;20036;-71
2021/09/03 04:43:22;;;;;;;11.98;8.93;;;11.50;99.90;;;;;;5052523;28;20044;-72
2021/09/03 04:45:48;;;;;;;10.38;9.15;;;11.40;99.90;;;;;;5053633;28;20025;-72
2021/09/03 04:48:14;;;;;;;13.77;9.45;;;11.40;99.90;;;;;;5049756;28;20500;-72
2021/09/03 04:50:40;;;;;;;20.95;10.65;;;11.40;99.90;;;;;;5061703;28;20162;-72
2021/09/03 04:53:06;;;;;;;11.70;9.43;;;11.40;99.90;;;;;;5052543;28;20151;-72
2021/09/03 04:55:32;;;;;;;18.08;9.25;;;11.40;99.90;;;;;;5052249;28;20500;-72
2021/09/03 04:57:58;;;;;;;11.57;8.95;;;11.50;99.90;;;;;;5051272;28;20029;-72
2021/09/03 05:00:24;;;;;;;14.40;9.48;;;11.70;99.90;;;;;;5051910;28;20025;-72
2021/09/03 05:02:49;;;;;;;12.30;8.82;;;11.80;99.90;;;;;;5053449;28;20507;-71
2021/09/03 05:05:15;;;;;;;10.50;9.38;;;12.10;99.90;;;;;;5053284;28;20090;-71
2021/09/03 05:07:41;;;;;;;9.50;8.52;;;12.30;99.90;;;;;;5053357;28;20029;-72
2021/09/03 05:10:08;;;;;;;10.15;8.05;;;12.60;99.90;;;;;;5053450;28;20033;-72
2021/09/03 05:12:36;;;;;;;10.85;8.13;;;13.00;99.90;;;;;;5053276;28;20374;-74
2021/09/03 05:15:11;;;;;;;9.15;6.93;;;13.30;99.90;;;;;;5053180;28;20017;-72
2021/09/03 05:17:38;;;;;;;13.05;7.53;;;13.90;99.90;;;;;;5053243;28;20029;-72
2021/09/03 05:20:05;;;;;;;11.45;8.55;;;14.30;99.90;;;;;;5052938;28;20441;-71
2021/09/03 05:22:32;;;;;;;16.10;7.57;;;14.20;99.90;;;;;;5051964;28;20396;-72
2021/09/03 05:24:58;;;;;;;12.25;9.98;;;14.30;99.90;;;;;;5053312;28;20025;-72
2021/09/03 05:27:24;;;;;;;10.40;7.30;;;14.30;99.90;;;;;;5051661;28;20033;-73
2021/09/03 05:29:49;;;;;;;9.88;7.47;;;14.50;99.90;;;;;;5052948;28;20028;-73
2021/09/03 05:32:15;;;;;;;10.20;7.18;;;14.70;99.90;;;;;;5052863;28;20025;-71
2021/09/03 05:34:40;;;;;;;9.73;7.65;;;15.00;99.90;;;;;;5052966;28;20142;-72
2021/09/03 05:37:06;;;;;;;7.97;7.18;;;15.00;99.90;;;;;;5051257;28;20017;-72
2021/09/03 05:39:31;;;;;;;10.55;6.40;;;15.10;99.90;;;;;;5052595;28;20127;-72
2021/09/03 05:41:57;;;;;;;8.82;6.53;;;15.40;99.90;;;;;;5052842;28;20486;-73
2021/09/03 05:44:23;;;;;;;10.32;6.38;;;16.00;99.90;;;;;;5052809;28;20109;-73
2021/09/03 05:46:48;;;;;;;8.68;6.72;;;16.60;99.90;;;;;;5087630;28;20033;-72
2021/09/03 05:49:14;;;;;;;11.73;6.93;;;16.80;99.90;;;;;;5048747;28;20021;-72
2021/09/03 05:51:39;;;;;;;8.80;7.07;;;16.80;99.90;;;;;;5060500;28;20366;-73
2021/09/03 05:54:08;;;;;;;8.25;7.40;;;16.70;99.90;;;;;;5052273;28;20465;-72
2021/09/03 05:56:35;;;;;;;10.13;7.03;;;16.40;99.90;;;;;;5052428;28;20021;-72
2021/09/03 05:59:02;;;;;;;12.68;6.97;;;16.10;99.90;;;;;;5052979;28;20025;-74
2021/09/03 06:01:28;;;;;;;10.00;7.32;;;16.40;99.90;;;;;;5052412;28;20104;-72
2021/09/03 06:03:53;;;;;;;11.95;7.90;;;16.10;99.90;;;;;;5052259;28;20096;-72
2021/09/03 06:06:19;;;;;;;8.73;7.75;;;15.50;99.90;;;;;;5052356;28;20439;-72
2021/09/03 06:08:45;;;;;;;10.50;8.45;;;15.30;99.90;;;;;;5052067;28;20088;-73
2021/09/03 06:11:10;;;;;;;9.82;8.15;;;15.00;99.90;;;;;;5052166;28;20047;-71
2021/09/03 06:13:36;;;;;;;11.68;8.57;;;14.80;99.90;;;;;;5050823;28;20025;-73
2021/09/03 06:16:02;;;;;;;16.58;9.40;;;14.60;99.90;;;;;;5051988;28;20036;-73
2021/09/03 06:18:27;;;;;;;12.80;9.27;;;14.30;99.90;;;;;;5050917;28;20020;-73
2021/09/03 06:20:53;;;;;;;16.65;9.38;;;14.40;99.90;;;;;;5050678;28;20025;-72
2021/09/03 06:23:18;;;;;;;11.55;9.07;;;14.20;99.90;;;;;;5052008;28;20023;-73
2021/09/03 06:25:44;;;;;;;12.00;9.40;;;14.20;99.90;;;;;;5052285;28;20108;-72
2021/09/03 06:28:09;;;;;;;16.77;9.68;;;14.30;99.90;;;;;;5050612;28;20112;-73
2021/09/03 06:30:35;;;;;;;16.95;9.88;;;14.30;99.90;;;;;;5050830;28;20033;-73
2021/09/03 06:33:00;;;;;;;15.52;10.77;;;14.40;99.90;;;;;;5050789;28;20032;-73
2021/09/03 06:35:26;;;;;;;15.38;10.48;;;14.30;99.90;;;;;;5052044;28;20086;-72
2021/09/03 06:37:52;;;;;;;12.30;9.70;;;14.30;99.90;;;;;;5052069;28;20025;-71
2021/09/03 06:40:18;;;;;;;16.65;10.90;;;14.30;99.90;;;;;;5048957;28;20029;-72
2021/09/03 06:42:43;;;;;;;17.63;10.07;;;14.40;99.90;;;;;;5049598;28;20051;-71
2021/09/03 06:45:10;;;;;;;15.73;10.57;;;14.40;99.90;;;;;;5051467;28;20402;-72
2021/09/03 06:47:36;;;;;;;11.50;10.32;;;14.50;99.90;;;;;;5047488;28;20033;-73
2021/09/03 06:50:04;;;;;;;16.17;10.73;;;14.60;99.90;;;;;;5057570;28;20260;-72
2021/09/03 06:52:30;;;;;;;15.00;10.95;;;14.60;99.90;;;;;;5052879;28;20116;-72
2021/09/03 06:54:57;;;;;;;13.50;11.35;;;14.80;99.90;;;;;;5051870;28;20104;-72
2021/09/03 06:57:23;;;;;;;16.38;11.73;;;14.80;99.90;;;;;;5050310;28;20024;-72
2021/09/03 06:59:49;;;;;;;16.15;12.40;;;15.20;99.90;;;;;;5051308;28;20040;-72
2021/09/03 07:02:15;;;;;;;22.15;12.77;;;15.50;99.90;;;;;;5051299;28;20021;-71
2021/09/03 07:04:41;;;;;;;19.42;12.15;;;15.60;99.90;;;;;;5049755;28;20440;-72
2021/09/03 07:07:07;;;;;;;19.92;12.43;;;15.50;99.90;;;;;;5050235;28;20090;-72
2021/09/03 07:09:32;;;;;;;19.20;12.55;;;15.60;99.90;;;;;;5051024;28;20025;-72
2021/09/03 07:11:58;;;;;;;19.02;12.27;;;15.70;99.90;;;;;;5051486;28;20029;-72
2021/09/03 07:14:23;;;;;;;20.05;13.43;;;15.80;99.90;;;;;;5051304;28;20072;-72
2021/09/03 07:16:49;;;;;;;13.18;11.70;;;16.00;99.90;;;;;;5049986;28;20104;-72
2021/09/03 07:19:14;;;;;;;18.88;11.80;;;15.90;99.90;;;;;;5051343;28;20055;-72
2021/09/03 07:21:40;;;;;;;16.08;11.68;;;16.20;99.90;;;;;;5053240;28;20056;-73
2021/09/03 07:24:05;;;;;;;12.50;11.25;;;16.40;99.90;;;;;;5054149;28;20048;-73
2021/09/03 07:26:31;;;;;;;17.73;10.55;;;16.40;99.90;;;;;;5055173;28;20546;-72
2021/09/03 07:28:57;;;;;;;11.77;10.27;;;16.60;99.90;;;;;;5054095;28;20029;-71
2021/09/03 07:31:24;;;;;;;10.90;9.80;;;16.60;99.90;;;;;;5055310;28;20033;-72
2021/09/03 07:33:49;;;;;;;11.90;8.93;;;16.60;99.90;;;;;;5055277;28;20029;-72
2021/09/03 07:36:15;;;;;;;10.23;8.00;;;16.60;99.90;;;;;;5055030;28;20024;-71
2021/09/03 07:38:41;;;;;;;9.73;7.00;;;16.80;99.90;;;;;;5054768;28;20028;-71
2021/09/03 07:41:07;;;;;;;11.02;7.30;;;16.90;99.90;;;;;;5056023;28;20244;-74
2021/09/03 07:43:32;;;;;;;10.85;6.80;;;17.20;99.90;;;;;;5066264;28;20021;-71
2021/09/03 07:45:58;;;;;;;7.35;6.65;;;17.30;99.90;;;;;;5074979;28;20020;-72
2021/09/03 07:48:24;;;;;;;14.30;6.88;;;17.30;99.90;;;;;;5064159;28;20017;-72
2021/09/03 07:50:50;;;;;;;7.72;6.45;;;17.30;99.90;;;;;;5053438;28;20028;-72
2021/09/03 07:53:15;;;;;;;7.40;6.32;;;17.40;99.90;;;;;;5055101;28;20092;-72
2021/09/03 07:55:41;;;;;;;7.93;6.57;;;17.50;99.90;;;;;;5053668;28;20112;-72
2021/09/03 07:58:07;;;;;;;7.90;6.65;;;17.50;99.90;;;;;;5054869;28;20469;-71
2021/09/03 08:00:34;;;;;;;7.15;6.05;;;17.60;99.90;;;;;;5054577;28;20025;-72
2021/09/03 08:03:00;;;;;;;7.35;6.18;;;17.70;99.90;;;;;;5054938;28;20100;-71
2021/09/03 08:05:26;;;;;;;7.55;6.40;;;17.80;99.90;;;;;;5053593;28;20440;-72
2021/09/03 08:07:52;;;;;;;6.20;5.20;;;18.00;99.90;;;;;;5054738;28;20059;-70
2021/09/03 08:10:17;;;;;;;6.30;5.70;;;18.20;99.90;;;;;;5053073;28;20071;-72
2021/09/03 08:12:44;;;;;;;6.88;5.60;;;18.10;99.90;;;;;;5054597;28;20104;-71
2021/09/03 08:15:11;;;;;;;6.85;6.20;;;18.20;99.90;;;;;;5054384;28;20116;-72
2021/09/03 08:17:37;;;;;;;7.60;6.50;;;18.40;99.90;;;;;;5054525;28;20049;-72
2021/09/03 08:20:04;;;;;;;6.88;6.18;;;18.40;99.90;;;;;;5054247;28;20052;-71
2021/09/03 08:22:30;;;;;;;6.72;5.57;;;18.40;99.90;;;;;;5054472;28;20043;-72
2021/09/03 08:24:56;;;;;;;7.35;6.15;;;18.40;99.90;;;;;;5054351;28;20502;-73
2021/09/03 08:27:21;;;;;;;8.27;5.93;;;18.40;99.90;;;;;;5052932;28;20473;-73
2021/09/03 08:29:47;;;;;;;7.57;5.97;;;18.50;99.90;;;;;;5054334;28;20033;-72
2021/09/03 08:32:14;;;;;;;6.93;5.38;;;18.60;99.90;;;;;;5053638;28;20405;-76
2021/09/03 08:34:40;;;;;;;8.73;6.03;;;18.70;99.90;;;;;;5052548;28;20163;-75
2021/09/03 08:37:06;;;;;;;8.20;6.55;;;18.80;99.90;;;;;;5054170;28;20021;-75
2021/09/03 08:39:31;;;;;;;5.72;5.13;;;19.10;99.90;;;;;;5055045;28;20107;-75
2021/09/03 08:41:57;;;;;;;6.03;5.07;;;19.00;99.90;;;;;;5062312;28;20050;-75
2021/09/03 08:44:23;;;;;;;8.40;6.82;;;19.00;99.90;;;;;;5074029;28;20039;-73
2021/09/03 08:46:49;;;;;;;9.38;6.43;;;19.30;99.90;;;;;;5074003;28;20028;-77
2021/09/03 08:49:14;;;;;;;8.10;6.25;;;19.40;99.90;;;;;;5053454;28;20033;-75
2021/09/03 08:51:40;;;;;;;9.95;6.97;;;19.50;99.90;;;;;;5052705;28;20091;-74
2021/09/03 08:54:06;;;;;;;7.40;6.15;;;19.40;99.90;;;;;;5057652;28;20103;-74
2021/09/03 08:56:32;;;;;;;8.07;5.18;;;19.60;99.90;;;;;;5062374;28;20112;-75
2021/09/03 08:58:58;;;;;;;7.18;6.47;;;19.60;99.90;;;;;;5063420;28;20016;-74
2021/09/03 09:01:24;;;;;;;6.20;5.60;;;19.40;99.90;;;;;;5055148;28;20572;-75
2021/09/03 09:03:51;;;;;;;6.47;5.78;;;19.40;99.90;;;;;;5067360;28;20017;-75
2021/09/03 09:06:26;;;;;;;7.90;6.10;;;19.40;99.90;;;;;;5053248;28;20048;-75
2021/09/03 09:09:06;;;;;;;9.05;5.85;;;19.60;99.90;;;;;;5054321;28;20031;-74
2021/09/03 09:11:34;;;;;;;10.15;7.03;;;19.80;99.90;;;;;;5072728;28;20066;-75
2021/09/03 09:14:02;;;;;;;7.07;6.30;;;19.90;99.90;;;;;;5060826;28;20025;-74
2021/09/03 09:16:30;;;;;;;8.88;5.95;;;19.90;99.90;;;;;;5053403;28;20022;-75
2021/09/03 09:19:04;;;;;;;7.45;5.88;;;19.90;99.90;;;;;;5051594;28;20075;-74
2021/09/03 09:21:37;;;;;;;9.07;6.47;;;20.10;99.90;;;;;;5063485;28;20488;-74
2021/09/03 09:24:12;;;;;;;8.27;6.10;;;20.30;99.90;;;;;;5073236;28;20480;-75
2021/09/03 09:26:56;;;;;;;8.95;5.95;;;20.40;99.90;;;;;;5055040;28;20033;-74
2021/09/03 09:29:29;;;;;;;8.77;6.50;;;20.40;99.90;;;;;;5052734;28;20025;-75
2021/09/03 09:32:01;;;;;;;8.00;6.38;;;20.60;99.90;;;;;;5051946;28;20025;-75
2021/09/03 09:34:38;;;;;;;6.85;6.05;;;20.60;99.90;;;;;;5053022;28;20060;-75
2021/09/03 09:37:07;;;;;;;8.35;6.28;;;20.50;99.90;;;;;;5052788;28;20130;-73
2021/09/03 09:39:56;;;;;;;8.95;6.35;;;20.40;99.90;;;;;;5052595;28;20017;-74
2021/09/03 09:42:27;;;;;;;6.63;5.97;;;20.40;99.90;;;;;;5085225;28;20033;-76
2021/09/03 09:45:07;;;;;;;6.38;5.72;;;20.50;99.90;;;;;;5055519;28;20025;-74
2021/09/03 09:47:32;;;;;;;6.88;6.20;;;20.70;99.90;;;;;;5052791;28;20393;-73
2021/09/03 09:49:58;;;;;;;6.53;5.65;;;20.80;99.90;;;;;;5052546;28;20047;-75
2021/09/03 09:52:34;;;;;;;6.82;5.78;;;20.70;99.90;;;;;;5052361;28;20029;-77
2021/09/03 09:55:00;;;;;;;9.82;6.15;;;20.90;99.90;;;;;;5052580;28;20036;-74
2021/09/03 09:57:30;;;;;;;7.22;6.20;;;20.90;99.90;;;;;;5052683;28;20025;-74
2021/09/03 09:59:56;;;;;;;7.63;5.88;;;21.10;99.90;;;;;;5052424;28;20183;-74
2021/09/03 10:02:22;;;;;;;5.68;4.75;;;21.20;99.90;;;;;;5052697;28;20052;-75
2021/09/03 10:04:49;;;;;;;6.22;5.63;;;21.30;99.90;;;;;;5051375;28;20074;-75
2021/09/03 10:07:15;;;;;;;7.72;6.18;;;21.40;99.90;;;;;;5052583;28;20083;-75
2021/09/03 10:09:41;;;;;;;6.35;5.75;;;21.50;99.90;;;;;;5052294;28;20507;-74
2021/09/03 10:12:07;;;;;;;7.75;5.60;;;21.50;99.90;;;;;;5051103;28;20116;-74
2021/09/03 10:14:34;;;;;;;8.40;5.82;;;21.40;99.90;;;;;;5059003;28;20128;-75
2021/09/03 10:16:59;;;;;;;9.70;6.43;;;21.60;99.90;;;;;;5066829;28;20017;-75
2021/09/03 10:19:26;;;;;;;6.28;5.68;;;21.60;99.90;;;;;;5058623;28;20171;-75
2021/09/03 10:22:03;;;;;;;6.60;5.25;;;21.50;99.90;;;;;;5033693;28;20017;-75
2021/09/03 10:24:30;;;;;;;7.05;6.35;;;21.40;99.90;;;;;;5050654;28;20105;-75
2021/09/03 10:26:57;;;;;;;6.35;5.63;;;21.60;99.90;;;;;;5052038;28;20033;-74
2021/09/03 10:29:39;;;;;;;7.50;5.85;;;21.70;99.90;;;;;;5050747;28;20029;-74
2021/09/03 10:32:08;;;;;;;7.75;6.55;;;21.80;99.90;;;;;;5051875;28;20415;-74
2021/09/03 10:34:53;;;;;;;6.95;6.25;;;22.00;99.90;;;;;;5052081;28;20159;-75
2021/09/03 10:37:20;;;;;;;6.13;5.53;;;22.10;99.90;;;;;;5050684;28;20170;-73
2021/09/03 10:40:04;;;;;;;6.70;6.00;;;22.10;99.90;;;;;;5050127;28;20392;-74
2021/09/03 10:42:43;;;;;;;7.28;6.00;;;22.10;99.90;;;;;;5051880;28;20373;-74
2021/09/03 10:45:10;;;;;;;8.13;5.65;;;21.90;99.90;;;;;;5051684;28;20099;-73
2021/09/03 10:47:45;;;;;;;7.07;5.70;;;22.00;99.90;;;;;;5051836;28;20036;-75
2021/09/03 10:50:32;;;;;;;6.35;5.60;;;21.90;99.90;;;;;;5031635;28;20614;-74
2021/09/03 10:53:07;;;;;;;6.45;5.85;;;22.10;99.90;;;;;;5032018;28;20026;-74
2021/09/03 10:56:05;;;;;;;7.00;5.40;;;21.80;99.90;;;;;;5030740;28;20072;-75
2021/09/03 10:58:37;;;;;;;6.95;5.50;;;21.80;99.90;;;;;;5031764;28;20039;-75
2021/09/03 11:01:11;;;;;;;6.57;5.75;;;22.10;99.90;;;;;;5031745;28;20033;-75
2021/09/03 11:03:50;;;;;;;5.93;5.32;;;22.60;99.90;;;;;;5031892;28;20021;-74
2021/09/03 11:06:29;;;;;;;8.63;5.50;;;22.60;99.90;;;;;;5037705;28;20385;-73
2021/09/03 11:09:17;;;;;;;7.28;6.05;;;22.70;99.90;;;;;;5051757;28;20055;-75
2021/09/03 11:11:47;;;;;;;6.45;5.85;;;23.00;99.90;;;;;;5051507;28;20477;-75
2021/09/03 11:14:18;;;;;;;6.17;5.57;;;23.10;99.90;;;;;;5049023;28;20033;-71
2021/09/03 11:16:57;;;;;;;10.15;6.00;;;23.00;99.90;;;;;;5059420;28;20025;-72
2021/09/03 11:19:33;;;;;;;6.07;5.47;;;22.80;99.90;;;;;;5067991;28;20399;-70
2021/09/03 11:22:07;;;;;;;7.05;5.95;;;23.00;99.90;;;;;;5071543;28;20403;-70
2021/09/03 11:24:44;;;;;;;6.43;5.72;;;23.00;99.90;;;;;;5071381;28;20107;-70
2021/09/03 11:27:12;;;;;;;7.45;5.80;;;23.00;99.90;;;;;;5061757;28;20535;-72
2021/09/03 11:29:43;;;;;;;5.85;5.25;;;23.20;99.90;;;;;;5061566;28;20056;-70
2021/09/03 11:32:15;;;;;;;6.50;5.80;;;23.10;99.90;;;;;;5063291;28;20025;-72
2021/09/03 11:34:46;;;;;;;6.43;5.47;;;23.00;99.90;;;;;;5048304;28;20038;-72
2021/09/03 11:37:23;;;;;;;6.18;5.57;;;23.00;99.90;;;;;;5061415;28;20016;-72
2021/09/03 11:40:14;;;;;;;6.40;5.10;;;23.10;99.90;;;;;;5068467;28;20020;-70
2021/09/03 11:42:51;;;;;;;9.13;5.70;;;23.20;99.90;;;;;;5051333;28;20029;-72
2021/09/03 11:45:26;;;;;;;5.75;5.15;;;23.20;99.90;;;;;;5031119;28;20296;-72
2021/09/03 11:47:53;;;;;;;4.85;4.35;;;23.40;99.90;;;;;;5050190;28;20021;-71
2021/09/03 11:50:24;;;;;;;5.93;5.32;;;23.80;99.90;;;;;;5059880;28;20037;-71
2021/09/03 11:52:50;;;;;;;4.80;4.32;;;23.90;99.90;;;;;;5067871;28;20025;-71
2021/09/03 11:55:17;;;;;;;6.95;4.93;;;23.80;99.90;;;;;;5050859;28;20082;-71
2021/09/03 11:58:03;;;;;;;5.10;4.43;;;23.70;99.90;;;;;;5050465;28;20040;-72
2021/09/03 12:00:33;;;;;;;6.10;5.15;;;23.90;99.90;;;;;;5050792;28;20029;-72
2021/09/03 12:03:01;;;;;;;6.45;4.70;;;23.70;99.90;;;;;;5050963;28;20032;-72
2021/09/03 12:05:26;;;;;;;5.85;4.60;;;23.60;99.90;;;;;;5050773;28;20380;-72
2021/09/03 12:08:07;;;;;;;5.15;4.65;;;23.70;99.90;;;;;;5052642;28;20025;-71
2021/09/03 12:10:42;;;;;;;6.82;4.68;;;23.70;99.90;;;;;;5053355;28;20036;-72
2021/09/03 12:13:10;;;;;;;4.95;4.47;;;23.40;99.90;;;;;;5054673;28;20021;-71
2021/09/03 12:15:36;;;;;;;6.10;4.68;;;23.50;99.90;;;;;;5054268;28;20028;-72
2021/09/03 12:18:17;;;;;;;4.28;3.88;;;23.70;99.90;;;;;;5055200;28;20539;-71
2021/09/03 12:20:51;;;;;;;6.50;4.75;;;24.00;99.90;;;;;;5054191;28;20032;-72
2021/09/03 12:23:17;;;;;;;5.53;4.60;;;24.20;99.90;;;;;;5054093;28;20029;-72
2021/09/03 12:25:43;;;;;;;4.57;4.03;;;24.10;99.90;;;;;;5053914;28;20120;-71
2021/09/03 12:28:12;;;;;;;7.80;4.88;;;24.00;99.90;;;;;;5050649;28;20495;-71
2021/09/03 12:30:39;;;;;;;4.82;4.32;;;24.20;99.90;;;;;;5066591;28;20012;-71
2021/09/03 12:33:27;;;;;;;5.22;4.72;;;24.50;99.90;;;;;;5083621;28;20096;-71
2021/09/03 12:35:58;;;;;;;6.65;5.20;;;24.20;99.90;;;;;;5080109;28;20020;-72
2021/09/03 12:38:51;;;;;;;4.80;4.40;;;24.10;99.90;;;;;;5079807;28;20017;-71
2021/09/03 12:41:20;;;;;;;10.65;7.38;;;24.20;99.90;;;;;;5068650;28;20029;-72
2021/09/03 12:43:51;;;;;;;5.15;4.55;;;24.20;99.90;;;;;;5058821;28;20021;-71